• Join FlightAware (Why Join?)
  • Login
  • US Flag 
05:43AM EST


 

Airport Tracker/Info


-or-


 

Live Flight TrackerFlight Track Log ✈ SWA440 ✈ 28-Apr-2013 ✈ KMDW - KCLE

Flight Track Log - Related Links

Times and Time Zones

All times are in EDT time to prevent confusion due to time zone crossing. See the SWA440 flight status page for this flight to view local times or setup timezone preferences in your user account.

Time Position Orientation Groundspeed Altitude Reporting Facility
EDT Latitude Longitude Course Direction KTS MPH feet Rate Location/Type
09:13AM 41.8000 -87.7000 98° East 162 186 2,600  Level Chicago TRACON
09:14AM 41.7989 -87.6122 91° East 207 238 6,000 1,680 Climbing Chicago Center
09:15AM 41.7903 -87.5097 96° East 266 306 6,600 2,160 Climbing Chicago Center
09:16AM 41.7850 -87.4100 94° East 271 312 10,500 3,360 Climbing Chicago Center
09:17AM 41.7775 -87.2828 94° East 285 328 13,500 2,700 Climbing Chicago Center
09:18AM 41.7579 -87.1210 98° East  Level FlightAware Approximate
09:18AM 41.7689 -87.1581 95° East 328 377 16,100  Level Chicago Center
09:19AM 41.7614 -87.0286 94° East 346 398 18,700 2,340 Climbing Chicago Center
09:20AM 41.7636 -86.8936 89° East 362 417 20,900 2,580 Climbing Chicago Center
09:21AM 41.7647 -86.7583 89° East 365 420 24,100 2,700 Climbing Chicago Center
09:22AM 41.7664 -86.6222 89° East 362 417 26,600 2,100 Climbing Chicago Center
09:23AM 41.7672 -86.4778 90° East 387 445 28,500 1,140 Climbing Chicago Center
09:24AM 41.7681 -86.3333 90° East 389 448 29,000 240 Climbing Chicago Center
09:25AM 41.7856 -86.1603 82° East 391 450 29,000  Level Chicago Center
09:26AM 41.8014 -86.0128 82° East 399 459 29,000  Level Chicago Center
09:27AM 41.8175 -85.8608 82° East 408 470 29,000  Level Chicago Center
09:28AM 41.8347 -85.7050 82° East 419 482 29,000 -840 Level Chicago Center
09:29AM 41.8517 -85.5514 82° East 414 476 27,300 -1,020 Descending Chicago Center
09:30AM 41.8669 -85.4003 82° East 405 466 27,000 -180 Descending Chicago Center
09:31AM 41.8825 -85.2461 82° East 413 475 27,000  Level Chicago Center
09:32AM 41.8906 -85.1861 80° East 420 483 27,000  Level Cleveland Center
09:33AM 41.9050 -85.0281 83° East 420 483 27,000  Level Cleveland Center
09:34AM 41.9192 -84.8756 83° East 420 483 27,000  Level Cleveland Center
09:35AM 41.9353 -84.7231 82° East 420 483 27,000  Level Cleveland Center
09:36AM 41.9511 -84.5733 82° East 415 478 27,000  Level Cleveland Center
09:37AM 41.9644 -84.4233 83° East 415 478 27,000  Level Cleveland Center
09:38AM 41.9739 -84.2589 86° East 402 463 27,000  Level Cleveland Center
09:39AM 41.9892 -84.1117 82° East 402 463 27,000 -480 Level Cleveland Center
09:40AM 42.0019 -83.9644 83° East 402 463 26,100 -1,500 Descending Cleveland Center
09:41AM 42.0144 -83.8169 83° East 402 463 24,000 -1,080 Descending Cleveland Center
09:42AM 42.0267 -83.6747 83° East 402 463 24,000  Level Cleveland Center
09:43AM 42.0386 -83.5411 83° East 397 457 24,000  Level Cleveland Center
09:44AM 42.0403 -83.3903 89° East 402 463 24,000  Level Cleveland Center
09:45AM 42.0250 -83.2414 98° East 402 463 24,000  Level Cleveland Center
09:46AM 42.0097 -83.0814 97° East 402 463 24,000 -780 Level Cleveland Center
09:47AM 41.9961 -82.9386 97° East 392 451 22,500 -1,860 Descending Cleveland Center
09:48AM 41.9822 -82.8039 98° East 379 436 20,300 -2,160 Descending Cleveland Center
09:49AM 41.9700 -82.6750 97° East 360 414 18,200 -2,100 Descending Cleveland Center
09:50AM 41.9556 -82.5517 99° East 348 400 16,100 -2,100 Descending Cleveland Center
09:51AM 41.9242 -82.4419 111° Southeast 329 379 14,100 -1,980 Descending Cleveland Center
09:51AM 41.9061 -82.3911 115° Southeast 299 344 13,000 -1,920 Descending Cleveland Center
09:52AM 41.8903 -82.3431 114° Southeast 306 352 12,200 -1,920 Descending Cleveland Center
09:52AM 41.8783 -82.3011 111° Southeast 288 331 11,300 -1,800 Descending Cleveland Center
09:53AM 41.8603 -82.2447 113° Southeast 294 338 10,400 -1,320 Descending Cleveland Center
09:53AM 41.8464 -82.2028 114° Southeast 274 315 10,000 -540 Descending Cleveland Center
09:54AM 41.8242 -82.1575 123° Southeast 278 320 9,900 -1,140 Descending Cleveland Center
09:54AM 41.7825 -82.1564 179° South 247 284 8,800 -1,620 Descending Cleveland Center
09:55AM 41.7556 -82.1447 162° South 231 266 8,300 -1,620 Descending Cleveland Center
09:55AM 41.7117 -82.1436 179° South 249 287 7,200 -1,800 Descending Cleveland Center
09:56AM 41.6847 -82.1400 174° South 236 272 6,500 -1,800 Descending Cleveland Center
09:57AM 41.6367 -82.1333 174° South 248 285 5,200 -1,620 Descending Cleveland Center
09:57AM 41.6242 -82.1303 170° South 248 285 4,900 -1,200 Descending Cleveland Center
09:58AM 41.5681 -82.1233 175° South 244 281 4,000 -900 Descending Cleveland Center
09:58AM 41.5556 -82.1203 170° South 253 291 4,000  Level Cleveland Center
09:58AM 41.5161 -82.1194 179° South 202 232 4,000  Level Cleveland Center
09:59AM 41.4975 -82.1133 166° South 234 269 4,000  Level Cleveland Center
10:00AM 41.4494 -82.1094 177° South 205 236 4,000  Level Cleveland Center
10:00AM 41.4433 -82.1067 161° South 208 239 4,000 -120 Level Cleveland Center
10:01AM 41.3894 -82.0861 164° South 203 234 3,900 -600 Descending Cleveland Center
10:01AM 41.3625 -82.0742 162° South 197 227 3,200 -540 Descending Cleveland Center
10:03AM 41.3322 -81.9961 117° Southeast 207 238 3,000 -420 Descending Cleveland Center
10:04AM 41.3578 -81.9414 58° Northeast 195 224 2,300 -960 Descending Cleveland Center
10:05AM 41.3875 -81.8978 48° Northeast 144 166 1,200 -1,140 Descending Cleveland Center
10:07AM 41.4000 -81.8500 114° Southeast  Level FlightAware Approximate